Time,TemperatureF,DewpointF,PressureIn,WindDirection,WindDirectionDegrees,WindSpeedMPH,WindSpeedGustMPH,Humidity,HourlyPrecipIn,Conditions,Clouds,dailyrainin,SolarRadiationWatts/m^2,SoftwareType,DateUTC
2013-08-27 06:24:00,61.9,59.8,30.00,SE,135,0.0,0.0,93,0.00,CLR,,0.65,23.2,WeatherDisplay:10.37,2013-08-27 04:24:00,
2013-08-27 06:25:00,61.9,59.8,30.00,SE,135,0.0,0.0,93,0.00,CLR,,0.65,25.8,WeatherDisplay:10.37,2013-08-27 04:25:00,
2013-08-27 06:30:00,62.1,60.0,30.00,SE,135,0.0,0.0,93,0.00,FEW,,0.65,29.5,WeatherDisplay:10.37,2013-08-27 04:30:00,
2013-08-27 06:35:00,62.1,60.0,30.00,SE,135,0.0,0.0,93,0.00,SCT,,0.65,29.5,WeatherDisplay:10.37,2013-08-27 04:35:00,
2013-08-27 06:40:00,62.1,60.0,30.00,SE,135,0.0,0.0,93,0.00,BKN,,0.65,17.9,WeatherDisplay:10.37,2013-08-27 04:40:00,
2013-08-27 06:45:00,62.1,60.0,30.00,NE,45,0.0,0.0,93,0.00,BKN,,0.65,16.8,WeatherDisplay:10.37,2013-08-27 04:45:00,
2013-08-27 06:50:00,62.1,60.0,30.00,NE,45,0.0,0.0,93,0.00,BKN,,0.65,19.5,WeatherDisplay:10.37,2013-08-27 04:50:00,
2013-08-27 06:55:00,62.2,60.2,30.00,NNE,22,0.0,0.0,93,0.00,BKN,,0.65,23.2,WeatherDisplay:10.37,2013-08-27 04:55:00,
2013-08-27 07:00:00,62.2,60.2,30.00,ENE,68,0.0,0.0,93,0.00,BKN,,0.65,26.9,WeatherDisplay:10.37,2013-08-27 05:00:00,
2013-08-27 07:05:00,62.2,60.2,30.00,NE,45,0.0,0.0,93,0.00,BKN,,0.65,29.5,WeatherDisplay:10.37,2013-08-27 05:05:00,
2013-08-27 07:10:00,62.2,60.2,30.00,ENE,68,0.0,0.0,93,0.00,BKN,,0.65,31.1,WeatherDisplay:10.37,2013-08-27 05:10:00,
2013-08-27 07:15:00,62.2,60.2,29.97,NE,45,2.3,0.0,93,0.00,BKN,,0.65,40.0,WeatherDisplay:10.37,2013-08-27 05:15:00,
2013-08-27 07:20:00,62.4,60.4,29.97,NE,45,0.0,0.0,93,0.00,BKN,,0.65,50.0,WeatherDisplay:10.37,2013-08-27 05:20:00,
2013-08-27 07:25:00,62.4,60.4,29.97,ENE,68,0.0,0.0,93,0.00,BKN,,0.65,74.8,WeatherDisplay:10.37,2013-08-27 05:25:00,
2013-08-27 07:30:00,62.6,60.5,29.97,NE,45,0.0,0.0,93,0.00,BKN,,0.65,72.1,WeatherDisplay:10.37,2013-08-27 05:30:00,
2013-08-27 07:35:00,62.6,60.5,29.97,NE,45,2.3,0.0,93,0.00,BKN,,0.65,57.9,WeatherDisplay:10.37,2013-08-27 05:35:00,
2013-08-27 07:40:00,62.6,60.2,29.97,NNE,22,1.2,0.0,92,0.00,BKN,,0.65,51.6,WeatherDisplay:10.37,2013-08-27 05:40:00,
2013-08-27 07:45:00,62.6,60.2,30.00,East,90,0.0,0.0,92,0.00,BKN,,0.65,60.5,WeatherDisplay:10.37,2013-08-27 05:45:00,
2013-08-27 07:50:00,62.8,60.4,30.00,ENE,68,2.6,0.0,92,0.00,SCT,,0.65,101.6,WeatherDisplay:10.37,2013-08-27 05:50:00,
2013-08-27 07:55:00,62.8,60.1,30.00,NNE,22,2.4,2.4,91,0.00,SCT,,0.65,127.4,WeatherDisplay:10.37,2013-08-27 05:55:00,
2013-08-27 08:00:00,63.0,60.6,29.97,NE,45,3.5,3.5,92,0.00,RA,,0.00,107.9,WeatherDisplay:10.37,2013-08-27 06:00:00,
2013-08-27 08:05:00,63.0,60.3,29.97,ENE,68,2.4,2.4,91,0.00,RA,,0.00,93.7,WeatherDisplay:10.37,2013-08-27 06:05:00,
2013-08-27 08:10:00,63.0,60.3,29.97,ENE,68,2.6,2.6,91,0.00,BKN,,0.00,116.9,WeatherDisplay:10.37,2013-08-27 06:10:00,
2013-08-27 08:15:00,63.1,60.5,29.97,ENE,68,4.6,4.6,91,0.00,BKN,,0.00,131.1,WeatherDisplay:10.37,2013-08-27 06:15:00,
2013-08-27 08:20:00,63.3,60.6,29.97,NNW,338,0.0,0.0,91,0.00,FEW,,0.00,174.8,WeatherDisplay:10.37,2013-08-27 06:20:00,
2013-08-27 08:25:00,63.5,60.8,29.97,ENE,68,3.5,3.5,91,0.00,SCT,,0.00,169.5,WeatherDisplay:10.37,2013-08-27 06:25:00,
2013-08-27 08:30:00,63.7,61.0,29.97,East,90,1.2,0.0,91,0.00,FEW,,0.00,233.8,WeatherDisplay:10.37,2013-08-27 06:30:00,
2013-08-27 08:35:00,63.9,60.9,29.97,ENE,68,1.6,0.0,90,0.00,CLR,,0.00,312.2,WeatherDisplay:10.37,2013-08-27 06:35:00,
2013-08-27 08:40:00,64.4,61.4,29.97,ENE,68,2.3,2.3,90,0.00,CLR,,0.00,281.7,WeatherDisplay:10.37,2013-08-27 06:40:00,
2013-08-27 08:45:00,64.6,60.9,29.97,ESE,112,5.8,5.8,88,0.00,FEW,,0.00,242.7,WeatherDisplay:10.37,2013-08-27 06:45:00,
2013-08-27 08:50:00,64.8,60.8,29.97,ESE,112,4.6,4.6,87,0.00,FEW,,0.00,263.3,WeatherDisplay:10.37,2013-08-27 06:50:00,
2013-08-27 08:55:00,64.8,60.5,29.97,NE,45,3.5,3.5,86,0.00,SCT,,0.00,205.9,WeatherDisplay:10.37,2013-08-27 06:55:00,
2013-08-27 09:00:00,64.9,60.6,29.97,ENE,68,4.9,4.9,86,0.00,BKN,,0.00,165.8,WeatherDisplay:10.37,2013-08-27 07:00:00,
2013-08-27 09:05:00,65.1,60.5,29.97,ENE,68,2.6,0.0,85,0.00,SCT,,0.00,183.7,WeatherDisplay:10.37,2013-08-27 07:05:00,
2013-08-27 09:10:00,65.1,60.5,29.97,ENE,68,6.2,6.2,85,0.00,BKN,,0.00,177.4,WeatherDisplay:10.37,2013-08-27 07:10:00,
2013-08-27 09:15:00,65.3,60.3,29.97,ESE,112,6.9,6.9,84,0.00,SCT,,0.00,205.9,WeatherDisplay:10.37,2013-08-27 07:15:00,
2013-08-27 09:20:00,65.5,60.2,29.97,ESE,112,5.8,5.8,83,0.00,SCT,,0.00,235.3,WeatherDisplay:10.37,2013-08-27 07:20:00,
2013-08-27 09:25:00,65.7,60.0,29.97,ESE,112,5.9,5.9,82,0.00,SCT,,0.00,238.0,WeatherDisplay:10.37,2013-08-27 07:25:00,
2013-08-27 09:30:00,65.7,60.0,29.97,NE,45,4.6,4.6,82,0.00,FEW,,0.00,286.4,WeatherDisplay:10.37,2013-08-27 07:30:00,
2013-08-27 09:35:00,65.8,60.2,29.97,ENE,68,6.9,6.9,82,0.00,FEW,,0.00,294.3,WeatherDisplay:10.37,2013-08-27 07:35:00,
2013-08-27 09:40:00,66.0,60.0,29.97,ENE,68,4.6,4.6,81,0.00,FEW,,0.00,322.7,WeatherDisplay:10.37,2013-08-27 07:40:00,
2013-08-27 09:45:00,66.2,59.8,29.94,East,90,4.6,4.6,80,0.00,FEW,,0.00,362.2,WeatherDisplay:10.37,2013-08-27 07:45:00,
2013-08-27 09:50:00,66.4,59.7,29.94,East,90,4.6,4.6,79,0.00,CLR,,0.00,434.4,WeatherDisplay:10.37,2013-08-27 07:50:00,
2013-08-27 09:55:00,66.9,60.5,29.94,ESE,112,6.4,6.4,80,0.00,CLR,,0.00,478.1,WeatherDisplay:10.37,2013-08-27 07:55:00,
2013-08-27 10:00:00,67.1,60.4,29.94,ENE,68,9.2,9.2,79,0.00,CLR,,0.00,686.0,WeatherDisplay:10.37,2013-08-27 08:00:00,
2013-08-27 10:05:00,67.5,60.4,29.94,East,90,5.4,5.4,78,0.00,CLR,,0.00,373.8,WeatherDisplay:10.37,2013-08-27 08:05:00,
2013-08-27 10:10:00,67.6,60.5,29.94,East,90,6.9,6.9,78,0.00,FEW,,0.00,384.3,WeatherDisplay:10.37,2013-08-27 08:10:00,
2013-08-27 10:15:00,67.8,60.7,29.97,East,90,4.7,4.7,78,0.00,FEW,,0.00,372.8,WeatherDisplay:10.37,2013-08-27 08:15:00,
2013-08-27 10:20:00,68.0,60.5,29.97,ENE,68,8.1,8.1,77,0.00,FEW,,0.00,392.2,WeatherDisplay:10.37,2013-08-27 08:20:00,
2013-08-27 10:25:00,68.2,60.3,29.97,East,90,2.9,2.9,76,0.00,FEW,,0.00,359.6,WeatherDisplay:10.37,2013-08-27 08:25:00,
2013-08-27 10:30:00,68.4,60.9,29.97,NE,45,5.8,5.8,77,0.00,CLR,,0.00,611.8,WeatherDisplay:10.37,2013-08-27 08:30:00,
2013-08-27 10:35:00,68.9,61.0,29.97,East,90,5.8,5.8,76,0.00,CLR,,0.00,701.8,WeatherDisplay:10.37,2013-08-27 08:35:00,
2013-08-27 10:40:00,69.3,61.4,29.97,ENE,68,3.8,3.8,76,0.00,CLR,,0.00,641.3,WeatherDisplay:10.37,2013-08-27 08:40:00,
2013-08-27 10:45:00,69.4,61.2,29.97,ENE,68,7.8,7.8,75,0.00,CLR,,0.00,636.0,WeatherDisplay:10.37,2013-08-27 08:45:00,
2013-08-27 10:50:00,69.8,61.1,29.97,ENE,68,6.9,6.9,74,0.00,CLR,,0.00,695.5,WeatherDisplay:10.37,2013-08-27 08:50:00,
2013-08-27 10:55:00,69.8,61.1,29.97,ENE,68,5.8,5.8,74,0.00,BKN,,0.00,271.1,WeatherDisplay:10.37,2013-08-27 08:55:00,
2013-08-27 11:00:00,69.6,61.0,30.00,NNE,22,4.6,4.6,74,0.00,BKN,,0.00,276.4,WeatherDisplay:10.37,2013-08-27 09:00:00,
2013-08-27 11:05:00,69.4,60.8,30.00,ENE,68,8.1,8.1,74,0.00,BKN,,0.00,228.5,WeatherDisplay:10.37,2013-08-27 09:05:00,
2013-08-27 11:10:00,69.3,60.2,30.00,ENE,68,2.2,2.2,73,0.00,BKN,,0.00,203.2,WeatherDisplay:10.37,2013-08-27 09:10:00,
2013-08-27 11:15:00,69.3,60.6,30.00,East,90,6.0,6.0,74,0.00,BKN,,0.00,218.5,WeatherDisplay:10.37,2013-08-27 09:15:00,
2013-08-27 11:20:00,69.3,60.6,30.00,ENE,68,3.8,3.8,74,0.00,BKN,,0.00,219.6,WeatherDisplay:10.37,2013-08-27 09:20:00,
2013-08-27 11:25:00,69.3,60.2,30.00,East,90,4.9,4.9,73,0.00,SCT,,0.00,318.5,WeatherDisplay:10.37,2013-08-27 09:25:00,
2013-08-27 11:30:00,69.3,60.2,30.00,ESE,112,5.8,5.8,73,0.00,BKN,,0.00,276.4,WeatherDisplay:10.37,2013-08-27 09:30:00,
2013-08-27 11:35:00,69.4,60.8,30.00,NE,45,6.9,6.9,74,0.00,FEW,,0.00,536.0,WeatherDisplay:10.37,2013-08-27 09:35:00,
2013-08-27 11:40:00,69.8,60.8,30.00,NNW,338,4.6,4.6,73,0.00,FEW,,0.00,397.0,WeatherDisplay:10.37,2013-08-27 09:40:00,
2013-08-27 11:45:00,69.8,60.4,29.97,ENE,68,3.5,3.5,72,0.00,SCT,,0.00,352.2,WeatherDisplay:10.37,2013-08-27 09:45:00,
2013-08-27 11:50:00,69.8,60.4,29.97,ENE,68,3.5,3.5,72,0.00,SCT,,0.00,338.0,WeatherDisplay:10.37,2013-08-27 09:50:00,
2013-08-27 11:55:00,70.3,60.9,29.97,NE,45,5.8,5.8,72,0.00,CLR,,0.00,722.4,WeatherDisplay:10.37,2013-08-27 09:55:00,
2013-08-27 12:00:00,70.7,61.2,29.94,SSW,202,5.8,5.8,72,0.00,CLR,,0.00,355.9,WeatherDisplay:10.37,2013-08-27 10:00:00,
2013-08-27 12:05:00,70.9,61.0,29.94,ESE,112,4.6,4.6,71,0.00,BKN,,0.00,228.5,WeatherDisplay:10.37,2013-08-27 10:05:00,
2013-08-27 12:10:00,70.9,61.0,29.94,NNW,338,5.8,5.8,71,0.00,CLR,,0.00,338.0,WeatherDisplay:10.37,2013-08-27 10:10:00,
2013-08-27 12:15:00,70.9,60.6,29.94,ENE,68,4.6,4.6,70,0.00,BKN,,0.00,281.7,WeatherDisplay:10.37,2013-08-27 10:15:00,
2013-08-27 12:20:00,71.1,60.8,29.94,SE,135,2.3,2.3,70,0.00,SCT,,0.00,322.7,WeatherDisplay:10.37,2013-08-27 10:20:00,
2013-08-27 12:25:00,71.1,60.8,29.94,NNW,338,4.3,4.3,70,0.00,FEW,,0.00,367.5,WeatherDisplay:10.37,2013-08-27 10:25:00,
2013-08-27 12:30:00,71.4,61.1,29.97,East,90,6.9,6.9,70,0.00,CLR,,0.00,866.1,WeatherDisplay:10.37,2013-08-27 10:30:00,
2013-08-27 12:35:00,71.2,61.0,29.97,NNE,22,3.5,3.5,70,0.00,FEW,,0.00,347.0,WeatherDisplay:10.37,2013-08-27 10:35:00,
2013-08-27 12:40:00,71.6,61.3,29.97,NE,45,5.4,5.4,70,0.00,CLR,,0.00,789.2,WeatherDisplay:10.37,2013-08-27 10:40:00,
2013-08-27 12:45:00,72.3,61.6,29.94,ENE,68,5.8,5.8,69,0.00,CLR,,0.00,764.5,WeatherDisplay:10.37,2013-08-27 10:45:00,
2013-08-27 12:50:00,72.3,61.2,29.94,SE,135,3.1,3.1,68,0.00,CLR,,0.00,800.8,WeatherDisplay:10.37,2013-08-27 10:50:00,
2013-08-27 12:55:00,72.9,61.7,29.94,NE,45,8.1,8.1,68,0.00,CLR,,0.00,603.9,WeatherDisplay:10.37,2013-08-27 10:55:00,
2013-08-27 13:00:00,73.0,61.9,29.94,NNE,22,2.4,2.4,68,0.00,BKN,,0.00,253.2,WeatherDisplay:10.37,2013-08-27 11:00:00,
2013-08-27 13:05:00,72.7,61.1,29.94,East,90,4.6,4.6,67,0.00,BKN,,0.00,330.1,WeatherDisplay:10.37,2013-08-27 11:05:00,
2013-08-27 13:10:00,72.5,60.9,29.94,SE,135,5.4,5.4,67,0.00,BKN,,0.00,241.7,WeatherDisplay:10.37,2013-08-27 11:10:00,
2013-08-27 13:15:00,72.5,60.9,29.94,ENE,68,2.3,2.3,67,0.00,BKN,,0.00,233.8,WeatherDisplay:10.37,2013-08-27 11:15:00,
2013-08-27 13:20:00,72.5,60.9,29.94,ESE,112,2.4,2.4,67,0.00,SCT,,0.00,390.7,WeatherDisplay:10.37,2013-08-27 11:20:00,
2013-08-27 13:25:00,72.5,60.9,29.94,East,90,5.8,5.8,67,0.00,BKN,,0.00,253.2,WeatherDisplay:10.37,2013-08-27 11:25:00,
2013-08-27 13:30:00,72.5,60.9,29.94,ENE,68,5.8,5.8,67,0.00,SCT,,0.00,414.9,WeatherDisplay:10.37,2013-08-27 11:30:00,
2013-08-27 13:35:00,73.2,61.6,29.94,ESE,112,4.6,4.6,67,0.00,CLR,,0.00,439.6,WeatherDisplay:10.37,2013-08-27 11:35:00,
2013-08-27 13:40:00,73.6,61.5,29.94,NNE,22,5.8,5.8,66,0.00,CLR,,0.00,733.9,WeatherDisplay:10.37,2013-08-27 11:40:00,
2013-08-27 13:45:00,73.6,61.1,29.94,ESE,112,4.9,4.9,65,0.00,BKN,,0.00,279.0,WeatherDisplay:10.37,2013-08-27 11:45:00,
2013-08-27 13:50:00,73.4,60.9,29.94,WNW,292,5.8,5.8,65,0.00,SCT,,0.00,349.6,WeatherDisplay:10.37,2013-08-27 11:50:00,
2013-08-27 13:55:00,73.6,61.1,29.94,ESE,112,2.3,2.3,65,0.00,BKN,,0.00,289.0,WeatherDisplay:10.37,2013-08-27 11:55:00,
2013-08-27 14:00:00,73.6,61.1,29.91,ESE,112,5.8,5.8,65,0.00,BKN,,0.00,283.8,WeatherDisplay:10.37,2013-08-27 12:00:00,
2013-08-27 14:05:00,73.6,60.6,29.91,ESE,112,3.5,3.5,64,0.00,FEW,,0.00,338.0,WeatherDisplay:10.37,2013-08-27 12:05:00,
2013-08-27 14:10:00,73.8,60.8,29.91,North,0,3.5,3.5,64,0.00,FEW,,0.00,334.3,WeatherDisplay:10.37,2013-08-27 12:10:00,
2013-08-27 14:15:00,74.1,61.6,29.91,ESE,112,3.5,3.5,65,0.00,BKN,,0.00,240.1,WeatherDisplay:10.37,2013-08-27 12:15:00,
2013-08-27 14:20:00,73.9,61.0,29.91,ENE,68,4.9,4.9,64,0.00,BKN,,0.00,165.8,WeatherDisplay:10.37,2013-08-27 12:20:00,
2013-08-27 14:25:00,73.4,60.5,29.91,East,90,5.8,5.8,64,0.00,BKN,,0.00,142.7,WeatherDisplay:10.37,2013-08-27 12:25:00,
2013-08-27 14:30:00,73.2,60.3,29.94,NW,315,3.5,3.5,64,0.00,BKN,,0.00,152.7,WeatherDisplay:10.37,2013-08-27 12:30:00,
2013-08-27 14:35:00,73.2,60.3,29.94,NNE,22,3.5,3.5,64,0.00,BKN,,0.00,164.3,WeatherDisplay:10.37,2013-08-27 12:35:00,
2013-08-27 14:40:00,73.2,60.3,29.94,NNW,338,3.5,3.5,64,0.00,BKN,,0.00,182.7,WeatherDisplay:10.37,2013-08-27 12:40:00,
2013-08-27 14:45:00,73.2,60.3,29.91,NE,45,2.9,2.9,64,0.00,BKN,,0.00,217.4,WeatherDisplay:10.37,2013-08-27 12:45:00,
2013-08-27 14:50:00,73.6,60.6,29.91,South,180,6.9,6.9,64,0.00,CLR,,0.00,708.1,WeatherDisplay:10.37,2013-08-27 12:50:00,
2013-08-27 14:55:00,73.8,60.8,29.91,NNE,22,4.6,4.6,64,0.00,BKN,,0.00,255.9,WeatherDisplay:10.37,2013-08-27 12:55:00,
2013-08-27 15:00:00,73.8,60.8,29.94,East,90,6.9,6.9,64,0.00,SCT,,0.00,327.5,WeatherDisplay:10.37,2013-08-27 13:00:00,
2013-08-27 15:05:00,73.8,60.4,29.94,NE,45,4.0,4.0,63,0.00,CLR,,0.00,641.3,WeatherDisplay:10.37,2013-08-27 13:05:00,
2013-08-27 15:10:00,74.1,60.7,29.94,ESE,112,4.6,4.6,63,0.00,SCT,,0.00,298.0,WeatherDisplay:10.37,2013-08-27 13:10:00,
2013-08-27 15:15:00,74.3,60.9,29.94,SSE,158,3.6,3.6,63,0.00,BKN,,0.00,201.6,WeatherDisplay:10.37,2013-08-27 13:15:00,
2013-08-27 15:20:00,73.9,60.5,29.94,ESE,112,5.8,5.8,63,0.00,BKN,,0.00,196.4,WeatherDisplay:10.37,2013-08-27 13:20:00,
2013-08-27 15:25:00,73.8,60.4,29.94,WNW,292,5.8,5.8,63,0.00,BKN,,0.00,156.9,WeatherDisplay:10.37,2013-08-27 13:25:00,
2013-08-27 15:30:00,73.6,60.2,29.91,NE,45,3.3,3.3,63,0.00,FEW,,0.00,520.7,WeatherDisplay:10.37,2013-08-27 13:30:00,
2013-08-27 15:35:00,74.3,60.9,29.91,North,0,3.5,3.5,63,0.00,CLR,,0.00,584.9,WeatherDisplay:10.37,2013-08-27 13:35:00,
2013-08-27 15:40:00,74.8,61.4,29.94,NE,45,4.0,4.0,63,0.00,FEW,,0.00,227.4,WeatherDisplay:10.37,2013-08-27 13:40:00,
2013-08-27 15:45:00,74.7,60.8,29.94,NE,45,8.1,8.1,62,0.00,CLR,,0.00,569.1,WeatherDisplay:10.37,2013-08-27 13:45:00,
2013-08-27 15:50:00,74.7,60.8,29.94,NE,45,3.5,3.5,62,0.00,BKN,,0.00,168.5,WeatherDisplay:10.37,2013-08-27 13:50:00,
2013-08-27 15:55:00,74.5,60.6,29.94,East,90,5.8,5.8,62,0.00,BKN,,0.00,143.7,WeatherDisplay:10.37,2013-08-27 13:55:00,
2013-08-27 16:00:00,74.1,60.3,29.91,ESE,112,5.8,5.8,62,0.00,BKN,,0.00,137.4,WeatherDisplay:10.37,2013-08-27 14:00:00,
2013-08-27 16:05:00,73.9,60.1,29.91,ENE,68,5.8,5.8,62,0.00,BKN,,0.00,127.4,WeatherDisplay:10.37,2013-08-27 14:05:00,
2013-08-27 16:10:00,73.8,60.4,29.94,ENE,68,5.8,5.8,63,0.00,CLR,,0.00,431.7,WeatherDisplay:10.37,2013-08-27 14:10:00,
2013-08-27 16:15:00,74.3,60.4,29.94,NE,45,4.6,4.6,62,0.00,CLR,,0.00,438.0,WeatherDisplay:10.37,2013-08-27 14:15:00,
2013-08-27 16:20:00,74.7,60.8,29.94,NE,45,5.8,5.8,62,0.00,CLR,,0.00,407.5,WeatherDisplay:10.37,2013-08-27 14:20:00,
2013-08-27 16:25:00,74.7,60.3,29.91,ESE,112,5.8,5.8,61,0.00,CLR,,0.00,395.9,WeatherDisplay:10.37,2013-08-27 14:25:00,
2013-08-27 16:30:00,74.8,60.9,29.91,North,0,5.8,5.8,62,0.00,CLR,,0.00,308.5,WeatherDisplay:10.37,2013-08-27 14:30:00,
2013-08-27 16:35:00,74.8,60.5,29.91,East,90,2.6,2.6,61,0.00,BKN,,0.00,132.2,WeatherDisplay:10.37,2013-08-27 14:35:00,
2013-08-27 16:40:00,74.7,60.3,29.91,ENE,68,5.8,5.8,61,0.00,BKN,,0.00,99.0,WeatherDisplay:10.37,2013-08-27 14:40:00,
2013-08-27 16:45:00,74.3,60.0,29.91,East,90,4.6,4.6,61,0.00,BKN,,0.00,140.0,WeatherDisplay:10.37,2013-08-27 14:45:00,
2013-08-27 16:50:00,74.3,60.0,29.91,SSE,158,3.5,3.5,61,0.00,SCT,,0.00,178.5,WeatherDisplay:10.37,2013-08-27 14:50:00,
2013-08-27 16:55:00,74.3,59.5,29.91,ENE,68,4.6,4.6,60,0.00,BKN,,0.00,178.5,WeatherDisplay:10.37,2013-08-27 14:55:00,
2013-08-27 17:00:00,74.3,60.0,29.91,SSE,158,5.8,5.8,61,0.00,CLR,,0.00,376.4,WeatherDisplay:10.37,2013-08-27 15:00:00,
2013-08-27 17:05:00,74.8,60.5,29.91,ENE,68,4.6,4.6,61,0.00,CLR,,0.00,332.7,WeatherDisplay:10.37,2013-08-27 15:05:00,
2013-08-27 17:10:00,74.8,60.0,29.91,ESE,112,3.6,3.6,60,0.00,FEW,,0.00,250.6,WeatherDisplay:10.37,2013-08-27 15:10:00,
2013-08-27 17:15:00,74.7,59.9,29.91,SE,135,5.8,5.8,60,0.00,BKN,,0.00,91.1,WeatherDisplay:10.37,2013-08-27 15:15:00,
2013-08-27 17:20:00,74.3,59.5,29.91,SE,135,5.8,5.8,60,0.00,BKN,,0.00,69.5,WeatherDisplay:10.37,2013-08-27 15:20:00,
2013-08-27 17:25:00,74.1,59.3,29.91,NE,45,5.8,5.8,60,0.00,BKN,,0.00,61.6,WeatherDisplay:10.37,2013-08-27 15:25:00,
2013-08-27 17:30:00,73.8,59.0,29.91,East,90,3.5,3.5,60,0.00,BKN,,0.00,119.5,WeatherDisplay:10.37,2013-08-27 15:30:00,
2013-08-27 17:35:00,73.6,58.8,29.91,East,90,3.5,3.5,60,0.00,SCT,,0.00,162.2,WeatherDisplay:10.37,2013-08-27 15:35:00,
2013-08-27 17:40:00,73.4,60.0,29.88,SE,135,4.6,4.6,63,0.00,BKN,,0.00,102.7,WeatherDisplay:10.37,2013-08-27 15:40:00,
2013-08-27 17:45:00,73.6,59.8,29.88,ENE,68,5.8,5.8,62,0.00,BKN,,0.00,63.2,WeatherDisplay:10.37,2013-08-27 15:45:00,
2013-08-27 17:50:00,73.4,59.1,29.88,ENE,68,4.6,4.6,61,0.00,BKN,,0.00,63.2,WeatherDisplay:10.37,2013-08-27 15:50:00,
2013-08-27 17:55:00,73.4,58.7,29.91,East,90,4.6,4.6,60,0.00,BKN,,0.00,55.3,WeatherDisplay:10.37,2013-08-27 15:55:00,
2013-08-27 18:00:00,73.2,59.0,29.91,NE,45,3.5,3.5,61,0.00,BKN,,0.00,54.2,WeatherDisplay:10.37,2013-08-27 16:00:00,
2013-08-27 18:05:00,73.2,59.0,29.91,ENE,68,4.6,4.6,61,0.00,BKN,,0.00,51.6,WeatherDisplay:10.37,2013-08-27 16:05:00,
2013-08-27 18:10:00,73.0,58.8,29.88,ENE,68,5.4,5.4,61,0.00,BKN,,0.00,50.0,WeatherDisplay:10.37,2013-08-27 16:10:00,
2013-08-27 18:15:00,73.0,58.8,29.88,East,90,3.8,3.8,61,0.00,BKN,,0.00,46.3,WeatherDisplay:10.37,2013-08-27 16:15:00,
2013-08-27 18:20:00,73.0,58.8,29.88,East,90,7.1,7.1,61,0.00,BKN,,0.00,42.6,WeatherDisplay:10.37,2013-08-27 16:20:00,
2013-08-27 18:25:00,72.9,58.6,29.91,ENE,68,3.5,3.5,61,0.00,BKN,,0.00,38.4,WeatherDisplay:10.37,2013-08-27 16:25:00,
2013-08-27 18:30:00,72.7,58.5,29.91,ESE,112,4.6,4.6,61,0.00,BKN,,0.00,38.4,WeatherDisplay:10.37,2013-08-27 16:30:00,
2013-08-27 18:35:00,72.7,58.9,29.91,East,90,4.6,4.6,62,0.00,BKN,,0.00,34.7,WeatherDisplay:10.37,2013-08-27 16:35:00,
2013-08-27 18:40:00,72.5,58.7,29.91,ESE,112,2.3,0.0,62,0.00,BKN,,0.00,32.1,WeatherDisplay:10.37,2013-08-27 16:40:00,
2013-08-27 18:45:00,72.3,58.6,29.91,East,90,3.5,3.5,62,0.00,BKN,,0.00,29.5,WeatherDisplay:10.37,2013-08-27 16:45:00,
2013-08-27 18:50:00,72.3,58.6,29.91,ENE,68,2.3,2.3,62,0.00,BKN,,0.00,21.6,WeatherDisplay:10.37,2013-08-27 16:50:00,
2013-08-27 18:55:00,72.1,58.8,29.91,East,90,3.5,3.5,63,0.00,BKN,,0.00,19.5,WeatherDisplay:10.37,2013-08-27 16:55:00,
2013-08-27 19:00:00,72.0,58.7,29.91,ESE,112,2.9,2.9,63,0.00,OVC,,0.00,16.8,WeatherDisplay:10.37,2013-08-27 17:00:00,
2013-08-27 19:05:00,71.8,58.5,29.91,East,90,2.6,2.6,63,0.00,OVC,,0.00,11.6,WeatherDisplay:10.37,2013-08-27 17:05:00,
2013-08-27 19:10:00,71.6,58.3,29.91,ESE,112,2.3,2.3,63,0.00,OVC,,0.00,10.5,WeatherDisplay:10.37,2013-08-27 17:10:00,
2013-08-27 19:15:00,71.4,58.6,29.91,East,90,2.3,2.3,64,0.00,OVC,,0.00,9.0,WeatherDisplay:10.37,2013-08-27 17:15:00,
2013-08-27 19:20:00,71.1,58.3,29.91,East,90,2.4,2.4,64,0.00,OVC,,0.00,6.3,WeatherDisplay:10.37,2013-08-27 17:20:00,
2013-08-27 19:25:00,70.9,58.5,29.91,East,90,2.6,2.6,65,0.00,OVC,,0.00,3.7,WeatherDisplay:10.37,2013-08-27 17:25:00,
2013-08-27 19:30:00,70.7,58.4,29.91,East,90,2.3,2.3,65,0.00,OVC,,0.00,1.1,WeatherDisplay:10.37,2013-08-27 17:30:00,
2013-08-27 19:35:00,70.5,58.2,29.91,East,90,2.3,2.3,65,0.00,OVC,,0.00,1.1,WeatherDisplay:10.37,2013-08-27 17:35:00,
2013-08-27 19:40:00,70.3,58.4,29.91,ENE,68,0.0,0.0,66,0.00,OVC,,0.00,1.1,WeatherDisplay:10.37,2013-08-27 17:40:00,
2013-08-27 19:45:00,70.2,58.3,29.91,NE,45,1.2,1.2,66,0.00,OVC,,0.00,1.1,WeatherDisplay:10.37,2013-08-27 17:45:00,
2013-08-27 19:50:00,70.2,58.3,29.91,East,90,1.2,0.0,66,0.00,OVC,,0.00,1.1,WeatherDisplay:10.37,2013-08-27 17:50:00,
2013-08-27 19:55:00,70.0,58.5,29.91,NNE,22,1.6,1.6,67,0.00,OVC,,0.00,1.1,WeatherDisplay:10.37,2013-08-27 17:55:00,
2013-08-27 20:00:00,69.8,58.3,29.91,NE,45,1.2,1.2,67,0.00,CLR,,0.00,0.0,WeatherDisplay:10.37,2013-08-27 18:00:00,
2013-08-27 20:05:00,69.4,58.4,29.91,ENE,68,2.3,2.3,68,0.00,CLR,,0.00,0.0,WeatherDisplay:10.37,2013-08-27 18:05:00,
2013-08-27 20:10:00,69.3,58.2,29.91,NE,45,2.3,2.3,68,0.00,CLR,,0.00,0.0,WeatherDisplay:10.37,2013-08-27 18:10:00,
2013-08-27 20:15:00,69.1,58.1,29.91,NNE,22,3.5,3.5,68,0.00,CLR,,0.00,0.0,WeatherDisplay:10.37,2013-08-27 18:15:00,
2013-08-27 20:20:00,68.9,58.3,29.91,NE,45,2.0,2.0,69,0.00,CLR,,0.00,0.0,WeatherDisplay:10.37,2013-08-27 18:20:00,
2013-08-27 20:25:00,68.7,58.1,29.91,ENE,68,2.3,2.3,69,0.00,CLR,,0.00,0.0,WeatherDisplay:10.37,2013-08-27 18:25:00,
2013-08-27 20:30:00,68.4,57.8,29.91,ENE,68,2.3,2.3,69,0.00,CLR,,0.00,0.0,WeatherDisplay:10.37,2013-08-27 18:30:00,
2013-08-27 20:35:00,68.2,58.0,29.91,ENE,68,3.5,3.5,70,0.00,CLR,,0.00,0.0,WeatherDisplay:10.37,2013-08-27 18:35:00,
2013-08-27 20:40:00,68.0,57.8,29.91,NE,45,3.8,3.8,70,0.00,CLR,,0.00,0.0,WeatherDisplay:10.37,2013-08-27 18:40:00,
2013-08-27 20:45:00,67.8,58.1,29.91,NNE,22,3.5,3.5,71,0.00,CLR,,0.00,0.0,WeatherDisplay:10.37,2013-08-27 18:45:00,
2013-08-27 20:50:00,67.6,57.9,29.91,NE,45,3.5,3.5,71,0.00,CLR,,0.00,0.0,WeatherDisplay:10.37,2013-08-27 18:50:00,
2013-08-27 20:55:00,67.6,57.9,29.91,ENE,68,2.4,2.4,71,0.00,CLR,,0.00,0.0,WeatherDisplay:10.37,2013-08-27 18:55:00,
2013-08-27 21:00:00,67.5,57.7,29.91,NNE,22,2.3,2.3,71,0.00,CLR,,0.00,0.0,WeatherDisplay:10.37,2013-08-27 19:00:00,
2013-08-27 21:05:00,67.3,57.9,29.91,NE,45,1.2,0.0,72,0.00,CLR,,0.00,0.0,WeatherDisplay:10.37,2013-08-27 19:05:00,
2013-08-27 21:10:00,67.3,57.9,29.91,NE,45,0.0,0.0,72,0.00,CLR,,0.00,0.0,WeatherDisplay:10.37,2013-08-27 19:10:00,
2013-08-27 21:15:00,67.3,57.9,29.91,ENE,68,2.4,2.4,72,0.00,CLR,,0.00,0.0,WeatherDisplay:10.37,2013-08-27 19:15:00,
2013-08-27 21:20:00,67.1,57.8,29.91,ENE,68,3.5,3.5,72,0.00,CLR,,0.00,0.0,WeatherDisplay:10.37,2013-08-27 19:20:00,
2013-08-27 21:25:00,67.1,58.2,29.91,ENE,68,2.3,2.3,73,0.00,CLR,,0.00,0.0,WeatherDisplay:10.37,2013-08-27 19:25:00,
2013-08-27 21:30:00,67.1,58.2,29.91,SE,135,3.6,3.6,73,0.00,CLR,,0.00,0.0,WeatherDisplay:10.37,2013-08-27 19:30:00,
2013-08-27 21:35:00,67.1,58.2,29.91,East,90,4.6,4.6,73,0.00,CLR,,0.00,0.0,WeatherDisplay:10.37,2013-08-27 19:35:00,
2013-08-27 21:40:00,67.1,58.2,29.91,ENE,68,5.6,5.6,73,0.00,CLR,,0.00,0.0,WeatherDisplay:10.37,2013-08-27 19:40:00,
2013-08-27 21:45:00,67.1,58.2,29.91,East,90,2.9,2.9,73,0.00,CLR,,0.00,0.0,WeatherDisplay:10.37,2013-08-27 19:45:00,
2013-08-27 21:50:00,66.9,58.0,29.91,ENE,68,2.3,2.3,73,0.00,CLR,,0.00,0.0,WeatherDisplay:10.37,2013-08-27 19:50:00,
2013-08-27 21:55:00,66.9,58.0,29.91,ENE,68,4.6,4.6,73,0.00,CLR,,0.00,0.0,WeatherDisplay:10.37,2013-08-27 19:55:00,
2013-08-27 22:00:00,66.9,58.4,29.91,NNE,22,4.0,4.0,74,0.00,CLR,,0.00,0.0,WeatherDisplay:10.37,2013-08-27 20:00:00,
2013-08-27 22:05:00,66.9,58.4,29.91,ENE,68,4.3,4.3,74,0.00,CLR,,0.00,0.0,WeatherDisplay:10.37,2013-08-27 20:05:00,
2013-08-27 22:10:00,66.7,58.2,29.91,NNE,22,4.6,4.6,74,0.00,CLR,,0.00,0.0,WeatherDisplay:10.37,2013-08-27 20:10:00,
2013-08-27 22:15:00,66.7,58.2,29.91,ESE,112,3.5,3.5,74,0.00,CLR,,0.00,0.0,WeatherDisplay:10.37,2013-08-27 20:15:00,
2013-08-27 22:20:00,66.7,58.2,29.91,ENE,68,4.6,4.6,74,0.00,CLR,,0.00,0.0,WeatherDisplay:10.37,2013-08-27 20:20:00,